Itapebi, Brazil
Current Conditions -  °F | °C
As of 12:00 AM on Saturday 25 Oct 2014 (Local Time) from SBPS Reporting Station
Broken Clouds Broken Clouds  
Wind Chill: 24°   Ceiling: 5000
Heat Index: 24°   Visibility: 6mi
Dew Point: 20°   Wind: 6mph
Humidity: 78%   Direction: 120°ESE
Pressure: 29.97"   Gusts: NA
Location:  15.95°S, 39.53°W
Report Text: SBPS 250300Z 12005KT 9999 SCT020 BKN050 24/20 Q1015
Loading
Personal Weather Stations






























Interactive Weather Map
Tropical Storm Tracking
New forecast layout! Learn more

10-Day Weather Forecast

Advertisements
Track Severe Weather on mobile